• Join FlightAware (Why Join?)
  • Login
  • US Flag 
06:05AM EDT


 

Airport Tracker/Info


-or-


 

Live Flight TrackerFlight Track Log ✈ EJA727 ✈ 23-Jun-2013 ✈ KAVL - KBCT

Flight Track Log - Related Links

Times and Time Zones

All times are in EDT time to prevent confusion due to time zone crossing. See the EJA727 flight status page for this flight to view local times or setup timezone preferences in your user account.

Time Position Orientation Groundspeed Altitude Reporting Facility
EDT Latitude Longitude Course Direction KTS MPH feet Rate Location/Type
03:48PM 35.3167 -82.5244 193° South 282 325 7,500  Level Atlanta Center
03:49PM 35.2461 -82.5433 192° South 282 325 9,300 1,920 Climbing Atlanta Center
03:50PM 35.1689 -82.5625 191° South 282 325 11,400 2,580 Climbing Atlanta Center
03:51PM 35.0794 -82.5869 193° South 289 333 14,500 3,000 Climbing Atlanta Center
03:52PM 34.9839 -82.6064 189° South 332 382 17,400 2,760 Climbing Atlanta Center
03:53PM 34.7940 -82.6866 187° South  Level FlightAware Approximate
03:53PM 34.8842 -82.6411 196° South 358 412 20,100  Level Atlanta Center
03:54PM 34.6858 -82.7041 193° South  Level FlightAware Approximate
03:54PM 34.7947 -82.6678 194° South 374 430 22,200  Level Atlanta Center
03:55PM 34.6886 -82.7025 195° South 379 436 23,500 1,380 Climbing Atlanta Center
03:56PM 34.5783 -82.7319 192° South 402 463 25,000 1,200 Climbing Atlanta Center
03:57PM 34.4722 -82.7664 195° South 403 464 26,000 1,500 Climbing Atlanta Center
03:58PM 34.3472 -82.7783 185° South 409 471 28,000 2,400 Climbing Atlanta Center
03:59PM 34.2344 -82.7675 175° South 414 476 30,800 2,400 Climbing Atlanta Center
04:00PM 34.1217 -82.7717 182° South 409 471 32,800 1,560 Climbing Atlanta Center
04:01PM 34.0114 -82.8108 196° South 403 464 34,000 1,080 Climbing Atlanta Center
04:02PM 33.8925 -82.8250 186° South 423 487 35,000 480 Climbing Atlanta Center
04:03PM 33.7672 -82.8144 176° South 439 505 35,000  Level Atlanta Center
04:04PM 33.6356 -82.7964 173° South 470 541 35,000  Level Atlanta Center
04:05PM 33.5122 -82.7806 174° South 463 533 35,000 300 Level Atlanta Center
04:06PM 33.3953 -82.7672 175° South 464 534 35,700 900 Climbing Atlanta Center
04:07PM 33.2656 -82.7469 173° South 457 526 36,800 1,020 Climbing Atlanta Center
04:08PM 33.1422 -82.7289 173° South 452 520 37,800 600 Climbing Atlanta Center
04:09PM 33.0189 -82.7108 173° South 452 520 38,000 60 Climbing Atlanta Center
04:10PM 32.8978 -82.6956 174° South 447 514 38,000  Level Atlanta Center
04:11PM 32.7786 -82.6775 173° South 442 509 38,000  Level Atlanta Center
04:14PM 32.4753 -82.6339 173° South 444 511 38,000  Level Jacksonville Center
04:15PM 32.3667 -82.6172 173° South 444 511 38,000 600 Level Jacksonville Center
04:16PM 32.2414 -82.6003 173° South 444 511 39,200 960 Climbing Jacksonville Center
04:17PM 32.1181 -82.5836 173° South 444 511 40,000 360 Climbing Jacksonville Center
04:18PM 31.9950 -82.5667 173° South 444 511 40,000  Level Jacksonville Center
04:19PM 31.8758 -82.5500 173° South 444 511 40,000  Level Jacksonville Center
04:20PM 31.7569 -82.5358 174° South 444 511 40,000  Level Jacksonville Center
04:21PM 31.6272 -82.5169 173° South 439 505 40,000  Level Jacksonville Center
04:22PM 31.5103 -82.5075 176° South 434 499 40,000  Level Jacksonville Center
04:23PM 31.3872 -82.5128 182° South 434 499 40,000  Level Jacksonville Center
04:24PM 31.2725 -82.5231 184° South 434 499 40,000  Level Jacksonville Center
04:25PM 31.1492 -82.5283 182° South 434 499 40,000  Level Jacksonville Center
04:26PM 31.0281 -82.5339 182° South 439 505 40,000  Level Jacksonville Center
04:27PM 30.9069 -82.5392 182° South 439 505 40,000  Level Jacksonville Center
04:28PM 30.7881 -82.5444 182° South 439 505 40,000  Level Jacksonville Center
04:29PM 30.6669 -82.5472 181° South 439 505 40,000 -180 Level Jacksonville Center
04:30PM 30.5458 -82.5525 182° South 439 505 39,700 -540 Descending Jacksonville Center
04:31PM 30.4247 -82.5506 179° South 439 505 39,000 -420 Descending Jacksonville Center
04:32PM 30.2994 -82.5414 176° South 439 505 38,900 -60 Descending Jacksonville Center
04:33PM 30.1825 -82.5322 176° South 438 504 38,900  Level Jacksonville Center
04:34PM 30.0656 -82.5206 175° South 433 498 39,000  Climbing Jacksonville Center
04:35PM 29.9633 -82.5089 174° South 420 483 39,000  Level Jacksonville Center
04:36PM 29.8483 -82.4997 176° South 420 483 39,000  Level Jacksonville Center
04:37PM 29.7272 -82.4908 176° South 425 489 39,000  Level Jacksonville Center
04:38PM 29.5914 -82.4842 178° South 432 497 39,000  Level Jacksonville Center
04:39PM 29.4619 -82.4703 175° South 453 521 39,000  Level Jacksonville Center
04:40PM 29.3347 -82.4639 177° South 459 528 39,000  Level Jacksonville Center
04:41PM 29.2094 -82.4547 176° South 459 528 39,000 -60 Level Jacksonville Center
04:42PM 29.0819 -82.4531 179° South 459 528 38,900  Descending Jacksonville Center
04:43PM 28.9631 -82.4772 190° South 452 520 39,000  Climbing Jacksonville Center
04:44PM 28.8400 -82.5039 191° South 447 514 39,000  Level Jacksonville Center
04:45PM 28.7275 -82.5469 199° South 441 507 39,000  Level Jacksonville Center
04:46PM 28.6317 -82.6017 207° Southwest 434 499 39,000 -300 Level Jacksonville Center
04:47PM 28.5211 -82.6564 204° Southwest 434 499 38,500 -960 Descending Jacksonville Center
04:48PM 28.4044 -82.7156 204° Southwest 446 513 37,100 -1,080 Descending Jacksonville Center
04:50PM 28.1167 -82.8114 196° South 453 521 35,000 -720 Descending Miami Center
04:51PM 28.0061 -82.8103 179° South 453 521 34,900  Descending Miami Center
04:52PM 27.8914 -82.8136 181° South 439 505 35,000  Climbing Miami Center
04:53PM 27.7597 -82.8186 182° South 434 499 35,000 -300 Level Miami Center
04:54PM 27.6428 -82.8242 182° South 418 481 34,500 -1,320 Descending Miami Center
04:55PM 27.5300 -82.8275 182° South 435 501 32,400 -2,100 Descending Miami Center
04:56PM 27.4047 -82.8306 181° South 450 518 30,300 -2,100 Descending Miami Center
04:57PM 27.2958 -82.7361 142° Southeast 430 495 28,300 -1,200 Descending Miami Center
04:58PM 27.2097 -82.6478 138° Southeast 423 487 28,000 -840 Descending Miami Center
04:59PM 27.1017 -82.5842 152° Southeast 423 487 26,700 -1,680 Descending Miami Center
05:00PM 27.0392 -82.4761 123° Southeast 434 499 24,700 -1,380 Descending Miami Center
05:01PM 26.9733 -82.3425 119° Southeast 439 505 24,000 -420 Descending Miami Center
05:02PM 26.9256 -82.2192 113° Southeast 439 505 23,900 -60 Descending Miami Center
05:03PM 26.9033 -82.0878 101° East 420 483 23,900 -1,020 Level Miami Center
05:04PM 26.8831 -81.9519 99° East 426 490 21,900 -2,160 Descending Miami Center
05:05PM 26.8625 -81.8231 100° East 426 490 19,600 -1,500 Descending Miami Center
05:06PM 26.8458 -81.7014 99° East 418 481 19,000 -300 Descending Miami Center
05:07PM 26.8414 -81.5778 92° East 406 467 19,000 -360 Level Miami Center
05:08PM 26.8350 -81.4542 93° East 406 467 18,300 -1,500 Descending Miami Center
05:09PM 26.8300 -81.3517 93° East 382 440 16,000 -2,280 Descending Miami Center
05:10PM 26.8231 -81.2303 94° East 352 405 13,800 -2,100 Descending Miami Center
05:11PM 26.8031 -81.1294 103° East 347 399 11,900 -1,860 Descending Miami Center
05:12PM 26.7575 -81.0464 122° Southeast 321 369 10,100 -1,440 Descending Miami Center
05:13PM 26.7200 -80.9753 121° Southeast 299 344 9,100 -540 Descending Miami Center
05:14PM 26.6864 -80.9022 117° Southeast 269 310 9,100 -60 Level Miami Center
05:15PM 26.6447 -80.8217 120° Southeast 266 306 9,000 -60 Descending Miami Center
05:16PM 26.6008 -80.7506 125° Southeast 280 322 9,000  Level Miami Center
05:17PM 26.5683 -80.7100 132° Southeast 280 322 9,000 -120 Level Miami Center
05:18PM 26.5244 -80.6414 126° Southeast 278 320 8,900 -960 Descending Miami Center
05:19PM 26.4928 -80.5636 114° Southeast 279 321 7,100 -1,860 Descending Miami Center
05:20PM 26.4992 -80.4825 85° East 260 299 5,200 -1,740 Descending Miami Center
05:21PM 26.4906 -80.4011 97° East 249 287 3,600 -1,500 Descending Miami Center
05:22PM 26.4631 -80.3331 114° Southeast 233 268 2,200 -840 Descending Miami Center
05:23PM 26.4392 -80.2789 116° Southeast 198 228 1,900 -180 Descending Miami Center
05:24PM 26.4156 -80.2250 116° Southeast 184 212 1,900 -120 Level Miami Center
05:25PM 26.3789 -80.1869 137° Southeast 173 199 1,700 -600 Descending Miami Center
05:26PM 26.3525 -80.1489 128° Southeast 149 171 800 -900 Descending Miami Center
05:28PM 26.3667 -80.1000 138° Southeast  Level FlightAware Approximate
05:35PM 26.3785 -80.1077 138° Southeast  Level Estimated